Time,TemperatureF,DewpointF,PressureIn,WindDirection,WindDirectionDegrees,WindSpeedMPH,WindSpeedGustMPH,Humidity,HourlyPrecipIn,Conditions,Clouds,dailyrainin,SoftwareType,DateUTC
2013-03-02 00:02:00,40.0,-99.9,29.80,NNW,338,5.0,9.0,-999,-99.99,,,-99.99,,2013-03-02 05:02:00,
2013-03-02 00:12:00,40.0,-99.9,29.79,NNW,337,5.0,10.0,-999,-99.99,,,-99.99,,2013-03-02 05:12:00,
2013-03-02 00:23:00,40.0,-99.9,29.80,NNW,343,5.0,9.0,-999,-99.99,,,-99.99,,2013-03-02 05:23:00,
2013-03-02 00:32:00,40.0,-99.9,29.80,NNW,346,5.0,11.0,-999,-99.99,,,-99.99,,2013-03-02 05:32:00,
2013-03-02 00:42:00,40.0,-99.9,29.80,North,356,7.0,14.0,-999,-99.99,,,-99.99,,2013-03-02 05:42:00,
2013-03-02 00:52:00,40.0,-99.9,29.80,North,355,8.0,14.0,-999,-99.99,,,-99.99,,2013-03-02 05:52:00,
2013-03-02 01:02:00,39.0,-99.9,29.80,North,358,7.0,13.0,-999,-99.99,,,-99.99,,2013-03-02 06:02:00,
2013-03-02 01:11:00,39.0,-99.9,29.80,North,357,8.0,14.0,-999,-99.99,,,-99.99,,2013-03-02 06:11:00,
2013-03-02 01:22:00,39.0,-99.9,29.80,North,358,7.0,12.0,-999,-99.99,,,-99.99,,2013-03-02 06:22:00,
2013-03-02 01:32:00,39.0,-99.9,29.80,North,356,7.0,11.0,-999,-99.99,,,-99.99,,2013-03-02 06:32:00,
2013-03-02 01:42:00,39.0,-99.9,29.80,NNW,347,6.0,11.0,-999,-99.99,,,-99.99,,2013-03-02 06:42:00,
2013-03-02 01:52:00,39.0,-99.9,29.80,North,352,6.0,14.0,-999,-99.99,,,-99.99,,2013-03-02 06:52:00,
2013-03-02 02:02:00,39.0,-99.9,29.80,North,354,8.0,15.0,-999,-99.99,,,-99.99,,2013-03-02 07:02:00,
2013-03-02 02:11:00,39.0,-99.9,29.79,NNW,348,8.0,17.0,-999,-99.99,,,-99.99,,2013-03-02 07:11:00,
2013-03-02 02:22:00,38.0,-99.9,29.79,NNW,346,7.0,13.0,-999,-99.99,,,-99.99,,2013-03-02 07:22:00,
2013-03-02 02:32:00,38.0,-99.9,29.80,NNW,344,8.0,16.0,-999,-99.99,,,-99.99,,2013-03-02 07:32:00,
2013-03-02 02:42:00,38.0,-99.9,29.80,NNW,348,9.0,17.0,-999,-99.99,,,-99.99,,2013-03-02 07:42:00,
2013-03-02 02:52:00,38.0,-99.9,29.80,NNW,341,7.0,13.0,-999,-99.99,,,-99.99,,2013-03-02 07:52:00,
2013-03-02 03:01:00,38.0,-99.9,29.80,NNW,341,9.0,16.0,-999,-99.99,,,-99.99,,2013-03-02 08:01:00,
2013-03-02 03:11:00,38.0,-99.9,29.80,NNW,341,9.0,17.0,-999,-99.99,,,-99.99,,2013-03-02 08:11:00,
2013-03-02 03:22:00,38.0,-99.9,29.80,NNW,340,9.0,17.0,-999,-99.99,,,-99.99,,2013-03-02 08:22:00,
2013-03-02 03:32:00,38.0,-99.9,29.80,NNW,347,11.0,18.0,-999,-99.99,,,-99.99,,2013-03-02 08:32:00,
2013-03-02 03:43:00,38.0,-99.9,29.80,NNW,342,8.0,14.0,-999,-99.99,,,-99.99,,2013-03-02 08:43:00,
2013-03-02 03:52:00,38.0,-99.9,29.79,NNW,346,10.0,19.0,-999,-99.99,,,-99.99,,2013-03-02 08:52:00,
2013-03-02 04:02:00,37.0,-99.9,29.80,NNW,348,10.0,17.0,-999,-99.99,,,-99.99,,2013-03-02 09:02:00,
2013-03-02 04:11:00,37.0,-99.9,29.80,NNW,346,11.0,19.0,-999,-99.99,,,-99.99,,2013-03-02 09:11:00,
2013-03-02 04:22:00,37.0,-99.9,29.80,NNW,338,9.0,17.0,-999,-99.99,,,-99.99,,2013-03-02 09:22:00,
2013-03-02 04:32:00,37.0,-99.9,29.80,NNW,344,10.0,17.0,-999,-99.99,,,-99.99,,2013-03-02 09:32:00,
2013-03-02 04:42:00,37.0,-99.9,29.80,NNW,343,11.0,19.0,-999,-99.99,,,-99.99,,2013-03-02 09:42:00,
2013-03-02 04:52:00,37.0,-99.9,29.80,NNW,343,12.0,21.0,-999,-99.99,,,-99.99,,2013-03-02 09:52:00,
2013-03-02 05:02:00,37.0,-99.9,29.80,NNW,345,13.0,20.0,-999,-99.99,,,-99.99,,2013-03-02 10:02:00,
2013-03-02 05:16:00,37.0,-99.9,29.80,NNW,347,11.0,20.0,-999,-99.99,,,-99.99,,2013-03-02 10:16:00,
2013-03-02 05:22:00,37.0,-99.9,29.80,NNW,344,13.0,21.0,-999,-99.99,,,-99.99,,2013-03-02 10:22:00,
2013-03-02 05:32:00,37.0,-99.9,29.80,NNW,347,12.0,20.0,-999,-99.99,,,-99.99,,2013-03-02 10:32:00,
2013-03-02 05:43:00,37.0,-99.9,29.80,NNW,342,12.0,20.0,-999,-99.99,,,-99.99,,2013-03-02 10:43:00,
2013-03-02 05:52:00,36.0,-99.9,29.80,NNW,341,13.0,18.0,-999,-99.99,,,-99.99,,2013-03-02 10:52:00,
2013-03-02 06:01:00,36.0,-99.9,29.80,NNW,343,11.0,24.0,-999,-99.99,,,-99.99,,2013-03-02 11:01:00,
2013-03-02 06:11:00,36.0,-99.9,29.80,NNW,345,11.0,22.0,-999,-99.99,,,-99.99,,2013-03-02 11:11:00,
2013-03-02 06:22:00,36.0,-99.9,29.80,NNW,345,13.0,20.0,-999,-99.99,,,-99.99,,2013-03-02 11:22:00,
2013-03-02 06:32:00,36.0,-99.9,29.80,NNW,345,13.0,20.0,-999,-99.99,,,-99.99,,2013-03-02 11:32:00,
2013-03-02 06:42:00,36.0,-99.9,29.80,North,350,11.0,18.0,-999,-99.99,,,-99.99,,2013-03-02 11:42:00,
2013-03-02 06:52:00,36.0,-99.9,29.80,NNW,347,11.0,19.0,-999,-99.99,,,-99.99,,2013-03-02 11:52:00,
2013-03-02 07:02:00,36.0,-99.9,29.80,North,353,13.0,23.0,-999,-99.99,,,-99.99,,2013-03-02 12:02:00,
2013-03-02 07:11:00,36.0,-99.9,29.81,North,349,10.0,19.0,-999,-99.99,,,-99.99,,2013-03-02 12:11:00,
2013-03-02 07:22:00,36.0,-99.9,29.81,North,352,11.0,21.0,-999,-99.99,,,-99.99,,2013-03-02 12:22:00,
2013-03-02 07:33:00,36.0,-99.9,29.81,North,356,10.0,19.0,-999,-99.99,,,-99.99,,2013-03-02 12:33:00,
2013-03-02 07:43:00,37.0,-99.9,29.80,North,-999,13.0,21.0,-999,-99.99,,,-99.99,,2013-03-02 12:43:00,
2013-03-02 07:53:00,37.0,-99.9,29.80,North,1,10.0,17.0,-999,-99.99,,,-99.99,,2013-03-02 12:53:00,
2013-03-02 08:02:00,36.0,-99.9,29.81,North,358,16.0,22.0,-999,-99.99,,,-99.99,,2013-03-02 13:02:00,
2013-03-02 08:12:00,36.0,-99.9,29.81,North,357,15.0,21.0,-999,-99.99,,,-99.99,,2013-03-02 13:12:00,
2013-03-02 08:22:00,36.0,-99.9,29.81,North,358,15.0,23.0,-999,-99.99,,,-99.99,,2013-03-02 13:22:00,
2013-03-02 08:32:00,36.0,-99.9,29.81,North,354,15.0,20.0,-999,-99.99,,,-99.99,,2013-03-02 13:32:00,
2013-03-02 08:42:00,36.0,-99.9,29.81,North,353,13.0,19.0,-999,-99.99,,,-99.99,,2013-03-02 13:42:00,
2013-03-02 08:53:00,37.0,-99.9,29.81,North,355,13.0,19.0,-999,-99.99,,,-99.99,,2013-03-02 13:53:00,
2013-03-02 09:01:00,37.0,-99.9,29.81,North,357,13.0,20.0,-999,-99.99,,,-99.99,,2013-03-02 14:01:00,
2013-03-02 09:11:00,37.0,-99.9,29.81,North,352,12.0,18.0,-999,-99.99,,,-99.99,,2013-03-02 14:11:00,
2013-03-02 09:22:00,37.0,-99.9,29.81,NNW,343,13.0,19.0,-999,-99.99,,,-99.99,,2013-03-02 14:22:00,
2013-03-02 09:32:00,37.0,-99.9,29.81,NNW,343,10.0,15.0,-999,-99.99,,,-99.99,,2013-03-02 14:32:00,
2013-03-02 09:42:00,37.0,-99.9,29.81,NNW,344,11.0,18.0,-999,-99.99,,,-99.99,,2013-03-02 14:42:00,
2013-03-02 09:52:00,37.0,-99.9,29.81,NNW,334,14.0,20.0,-999,-99.99,,,-99.99,,2013-03-02 14:52:00,
2013-03-02 10:02:00,37.0,-99.9,29.81,NNW,332,14.0,18.0,-999,-99.99,,,-99.99,,2013-03-02 15:02:00,
2013-03-02 10:11:00,37.0,-99.9,29.81,NNW,335,12.0,18.0,-999,-99.99,,,-99.99,,2013-03-02 15:11:00,
2013-03-02 10:22:00,37.0,-99.9,29.81,NNW,342,12.0,18.0,-999,-99.99,,,-99.99,,2013-03-02 15:22:00,
2013-03-02 10:32:00,38.0,-99.9,29.81,NNW,334,12.0,17.0,-999,-99.99,,,-99.99,,2013-03-02 15:32:00,
2013-03-02 10:42:00,38.0,-99.9,29.82,NW,322,15.0,20.0,-999,-99.99,,,-99.99,,2013-03-02 15:42:00,
2013-03-02 10:52:00,38.0,-99.9,29.81,NW,326,13.0,17.0,-999,-99.99,,,-99.99,,2013-03-02 15:52:00,
2013-03-02 11:02:00,39.0,-99.9,29.81,NNW,327,8.0,18.0,-999,-99.99,,,-99.99,,2013-03-02 16:02:00,
2013-03-02 11:11:00,40.0,-99.9,29.81,NW,315,11.0,20.0,-999,-99.99,,,-99.99,,2013-03-02 16:11:00,
2013-03-02 11:22:00,40.0,-99.9,29.81,NW,315,9.0,17.0,-999,-99.99,,,-99.99,,2013-03-02 16:22:00,
2013-03-02 11:32:00,38.0,-99.9,29.81,NW,320,16.0,19.0,-999,-99.99,,,-99.99,,2013-03-02 16:32:00,
2013-03-02 11:42:00,38.0,-99.9,29.81,NNW,328,15.0,19.0,-999,-99.99,,,-99.99,,2013-03-02 16:42:00,
2013-03-02 11:52:00,37.0,-99.9,29.81,NW,325,15.0,18.0,-999,-99.99,,,-99.99,,2013-03-02 16:52:00,
2013-03-02 12:01:00,37.0,-99.9,29.80,NNW,332,14.0,19.0,-999,-99.99,,,-99.99,,2013-03-02 17:01:00,
2013-03-02 12:12:00,38.0,-99.9,29.80,NNW,334,12.0,17.0,-999,-99.99,,,-99.99,,2013-03-02 17:12:00,
2013-03-02 12:22:00,38.0,-99.9,29.80,NNW,337,12.0,18.0,-999,-99.99,,,-99.99,,2013-03-02 17:22:00,
2013-03-02 12:32:00,38.0,-99.9,29.79,NNW,331,14.0,17.0,-999,-99.99,,,-99.99,,2013-03-02 17:32:00,
2013-03-02 12:42:00,39.0,-99.9,29.78,NNW,334,12.0,18.0,-999,-99.99,,,-99.99,,2013-03-02 17:42:00,
2013-03-02 12:52:00,38.0,-99.9,29.78,NNW,340,12.0,17.0,-999,-99.99,,,-99.99,,2013-03-02 17:52:00,
2013-03-02 13:02:00,39.0,-99.9,29.78,NNW,332,12.0,16.0,-999,-99.99,,,-99.99,,2013-03-02 18:02:00,
2013-03-02 13:12:00,39.0,-99.9,29.76,NNW,333,12.0,17.0,-999,-99.99,,,-99.99,,2013-03-02 18:12:00,
2013-03-02 13:22:00,39.0,-99.9,29.76,NNW,331,13.0,17.0,-999,-99.99,,,-99.99,,2013-03-02 18:22:00,
2013-03-02 13:32:00,39.0,-99.9,29.76,NNW,333,14.0,17.0,-999,-99.99,,,-99.99,,2013-03-02 18:32:00,
2013-03-02 13:42:00,39.0,-99.9,29.75,NNW,334,14.0,18.0,-999,-99.99,,,-99.99,,2013-03-02 18:42:00,
2013-03-02 13:52:00,39.0,-99.9,29.75,NNW,332,15.0,19.0,-999,-99.99,,,-99.99,,2013-03-02 18:52:00,
2013-03-02 14:02:00,39.0,-99.9,29.75,NNW,333,15.0,19.0,-999,-99.99,,,-99.99,,2013-03-02 19:02:00,
2013-03-02 14:12:00,39.0,-99.9,29.75,NNW,335,15.0,19.0,-999,-99.99,,,-99.99,,2013-03-02 19:12:00,
2013-03-02 14:22:00,39.0,-99.9,29.74,NNW,335,15.0,20.0,-999,-99.99,,,-99.99,,2013-03-02 19:22:00,
2013-03-02 14:32:00,39.0,-99.9,29.74,NW,322,7.0,18.0,-999,-99.99,,,-99.99,,2013-03-02 19:32:00,
2013-03-02 14:43:00,41.0,-99.9,29.74,NNW,327,10.0,19.0,-999,-99.99,,,-99.99,,2013-03-02 19:43:00,
2013-03-02 14:52:00,40.0,-99.9,29.74,NW,324,10.0,17.0,-999,-99.99,,,-99.99,,2013-03-02 19:52:00,
2013-03-02 15:02:00,39.0,-99.9,29.74,NNW,332,16.0,19.0,-999,-99.99,,,-99.99,,2013-03-02 20:02:00,
2013-03-02 15:12:00,38.0,-99.9,29.74,NNW,330,15.0,20.0,-999,-99.99,,,-99.99,,2013-03-02 20:12:00,
2013-03-02 15:22:00,38.0,-99.9,29.74,NNW,327,15.0,21.0,-999,-99.99,,,-99.99,,2013-03-02 20:22:00,
2013-03-02 15:32:00,38.0,-99.9,29.74,NNW,327,15.0,20.0,-999,-99.99,,,-99.99,,2013-03-02 20:32:00,
2013-03-02 15:42:00,38.0,-99.9,29.75,NNW,329,15.0,20.0,-999,-99.99,,,-99.99,,2013-03-02 20:42:00,
2013-03-02 15:53:00,38.0,-99.9,29.75,NW,326,15.0,20.0,-999,-99.99,,,-99.99,,2013-03-02 20:53:00,
2013-03-02 16:02:00,38.0,-99.9,29.75,NNW,327,15.0,19.0,-999,-99.99,,,-99.99,,2013-03-02 21:02:00,
2013-03-02 16:12:00,38.0,-99.9,29.75,NW,322,15.0,18.0,-999,-99.99,,,-99.99,,2013-03-02 21:12:00,
2013-03-02 16:22:00,38.0,-99.9,29.75,NNW,328,15.0,18.0,-999,-99.99,,,-99.99,,2013-03-02 21:22:00,
2013-03-02 16:32:00,38.0,-99.9,29.74,NW,324,13.0,17.0,-999,-99.99,,,-99.99,,2013-03-02 21:32:00,
2013-03-02 16:42:00,38.0,-99.9,29.74,NNW,329,13.0,18.0,-999,-99.99,,,-99.99,,2013-03-02 21:42:00,
2013-03-02 16:52:00,38.0,-99.9,29.74,NW,320,15.0,18.0,-999,-99.99,,,-99.99,,2013-03-02 21:52:00,
2013-03-02 17:02:00,38.0,-99.9,29.74,NW,316,12.0,15.0,-999,-99.99,,,-99.99,,2013-03-02 22:02:00,
2013-03-02 17:12:00,38.0,-99.9,29.75,NW,305,16.0,20.0,-999,-99.99,,,-99.99,,2013-03-02 22:12:00,
2013-03-02 17:22:00,38.0,-99.9,29.75,WNW,302,15.0,19.0,-999,-99.99,,,-99.99,,2013-03-02 22:22:00,
2013-03-02 17:32:00,38.0,-99.9,29.75,WNW,295,15.0,17.0,-999,-99.99,,,-99.99,,2013-03-02 22:32:00,
2013-03-02 17:42:00,38.0,-99.9,29.75,WNW,298,14.0,18.0,-999,-99.99,,,-99.99,,2013-03-02 22:42:00,
2013-03-02 17:52:00,38.0,-99.9,29.75,WNW,294,15.0,17.0,-999,-99.99,,,-99.99,,2013-03-02 22:52:00,
2013-03-02 18:02:00,38.0,-99.9,29.75,WNW,290,12.0,17.0,-999,-99.99,,,-99.99,,2013-03-02 23:02:00,
2013-03-02 18:12:00,38.0,-99.9,29.76,WNW,298,15.0,19.0,-999,-99.99,,,-99.99,,2013-03-02 23:12:00,
2013-03-02 18:22:00,38.0,-99.9,29.76,NW,309,16.0,20.0,-999,-99.99,,,-99.99,,2013-03-02 23:22:00,
2013-03-02 18:32:00,38.0,-99.9,29.76,NW,310,13.0,18.0,-999,-99.99,,,-99.99,,2013-03-02 23:32:00,
2013-03-02 18:42:00,38.0,-99.9,29.76,NW,306,16.0,19.0,-999,-99.99,,,-99.99,,2013-03-02 23:42:00,
2013-03-02 18:52:00,38.0,-99.9,29.77,NW,306,13.0,17.0,-999,-99.99,,,-99.99,,2013-03-02 23:52:00,
2013-03-02 19:02:00,38.0,-99.9,29.77,NW,315,16.0,20.0,-999,-99.99,,,-99.99,,2013-03-03 00:02:00,
2013-03-02 19:11:00,38.0,-99.9,29.77,NW,313,19.0,23.0,-999,-99.99,,,-99.99,,2013-03-03 00:11:00,
2013-03-02 19:23:00,37.0,-99.9,29.77,NW,309,17.0,21.0,-999,-99.99,,,-99.99,,2013-03-03 00:23:00,
2013-03-02 19:32:00,37.0,-99.9,29.77,NW,313,15.0,21.0,-999,-99.99,,,-99.99,,2013-03-03 00:32:00,
2013-03-02 19:42:00,37.0,-99.9,29.77,WNW,290,20.0,25.0,-999,-99.99,,,-99.99,,2013-03-03 00:42:00,
2013-03-02 19:53:00,37.0,-99.9,29.77,WNW,289,19.0,22.0,-999,-99.99,,,-99.99,,2013-03-03 00:53:00,
2013-03-02 20:01:00,37.0,-99.9,29.77,WNW,296,18.0,21.0,-999,-99.99,,,-99.99,,2013-03-03 01:01:00,
2013-03-02 20:11:00,36.0,-99.9,29.77,WNW,300,16.0,21.0,-999,-99.99,,,-99.99,,2013-03-03 01:11:00,
2013-03-02 20:22:00,37.0,-99.9,29.77,WNW,303,18.0,23.0,-999,-99.99,,,-99.99,,2013-03-03 01:22:00,
2013-03-02 20:32:00,37.0,-99.9,29.77,NW,304,18.0,22.0,-999,-99.99,,,-99.99,,2013-03-03 01:32:00,
2013-03-02 20:42:00,37.0,-99.9,29.77,NW,305,19.0,24.0,-999,-99.99,,,-99.99,,2013-03-03 01:42:00,
2013-03-02 20:52:00,37.0,-99.9,29.77,NW,309,18.0,22.0,-999,-99.99,,,-99.99,,2013-03-03 01:52:00,
2013-03-02 21:01:00,37.0,-99.9,29.77,NW,312,17.0,21.0,-999,-99.99,,,-99.99,,2013-03-03 02:01:00,
2013-03-02 21:11:00,37.0,-99.9,29.77,NW,305,17.0,20.0,-999,-99.99,,,-99.99,,2013-03-03 02:11:00,
2013-03-02 21:22:00,37.0,-99.9,29.77,NW,309,19.0,23.0,-999,-99.99,,,-99.99,,2013-03-03 02:22:00,
2013-03-02 21:32:00,37.0,-99.9,29.77,NW,313,15.0,23.0,-999,-99.99,,,-99.99,,2013-03-03 02:32:00,
2013-03-02 21:42:00,37.0,-99.9,29.78,NW,306,16.0,22.0,-999,-99.99,,,-99.99,,2013-03-03 02:42:00,
2013-03-02 21:52:00,37.0,-99.9,29.78,NW,309,14.0,21.0,-999,-99.99,,,-99.99,,2013-03-03 02:52:00,
2013-03-02 22:02:00,37.0,-99.9,29.78,NW,312,14.0,21.0,-999,-99.99,,,-99.99,,2013-03-03 03:02:00,
2013-03-02 22:11:00,37.0,-99.9,29.77,NW,318,13.0,19.0,-999,-99.99,,,-99.99,,2013-03-03 03:11:00,
2013-03-02 22:22:00,37.0,-99.9,29.77,NW,319,11.0,20.0,-999,-99.99,,,-99.99,,2013-03-03 03:22:00,
2013-03-02 22:32:00,37.0,-99.9,29.77,NW,320,11.0,19.0,-999,-99.99,,,-99.99,,2013-03-03 03:32:00,
2013-03-02 22:42:00,37.0,-99.9,29.77,NW,319,11.0,19.0,-999,-99.99,,,-99.99,,2013-03-03 03:42:00,
2013-03-02 22:52:00,37.0,-99.9,29.77,NW,319,13.0,23.0,-999,-99.99,,,-99.99,,2013-03-03 03:52:00,
2013-03-02 23:01:00,37.0,-99.9,29.77,NW,321,13.0,23.0,-999,-99.99,,,-99.99,,2013-03-03 04:01:00,
2013-03-02 23:11:00,37.0,-99.9,29.76,NW,323,11.0,20.0,-999,-99.99,,,-99.99,,2013-03-03 04:11:00,
2013-03-02 23:22:00,37.0,-99.9,29.76,NNW,327,9.0,17.0,-999,-99.99,,,-99.99,,2013-03-03 04:22:00,
2013-03-02 23:32:00,37.0,-99.9,29.76,NW,321,9.0,17.0,-999,-99.99,,,-99.99,,2013-03-03 04:32:00,
2013-03-02 23:42:00,37.0,-99.9,29.76,NW,324,9.0,17.0,-999,-99.99,,,-99.99,,2013-03-03 04:42:00,
2013-03-02 23:52:00,37.0,-99.9,29.76,NW,319,11.0,19.0,-999,-99.99,,,-99.99,,2013-03-03 04:52:00,